FALA METAR and TAF | Updated Today

FALA METAR

Lanseria Airport

Observation time: 62 min. ago

FALA 291100Z 30012KT 9999 FEW040 20/08 Q1023 NOSIG

Need help? Read our tutorial on how to read METARs or read the parsed version below.

Lanseria Airport (FALA) METAR

  • Weather conditions on Sun, 29 May 2022 11:00:00 +0000 (62 min. ago):
  • Present conditions: Dry
  • Clouds: A few at 1219 meters
  • Visibility: Greater than 10 km
  • Wind: 300 degrees at 12 knots
  • Temperature: 20 celsius
  • Dew point: 8 celsius
  • Pressure: 1023 millibars
  • Remarks: None


Useful to know...

FALA TAF

Lanseria Airport

TAF FALA 291000Z 2912/3012 32010KT CAVOK TX21/2912Z TN06/3005Z BECMG 2914/2916 VRB03KT BECMG 2920/2922 20012KT BECMG 3008/3010 VRB03KT
Observation time: 2:02 hr. ago
Need help? Read our tutorial on how to read TAFs or read the parsed version below.

Parsed version of TAF for Lanseria Airport (FALA)

  • From 29 May at 12:00 UTC, to day 30 of the month at 12:00 UTC
  • Visibility: Greater than 10 km
  • Wind: 320 degrees at 10
  • Expected to arise soon, from 29 May at 14:00 UTC, to day 29 of the month at 16:00 UTC
  • Wind: Variable at 3
  • Expected to arise soon, from 29 May at 20:00 UTC, to day 29 of the month at 22:00 UTC
  • Wind: 200 degrees at 12
  • Expected to arise soon, from 30 May at 08:00 UTC, to day 30 of the month at 10:00 UTC
  • Wind: Variable at 3